sensor_id;sensor_type;location;lat;lon;timestamp;temperature;humidity
19252;DHT22;9760;50.944;5.304;2022-11-27T00:01:19;6.90;99.90
19252;DHT22;9760;50.944;5.304;2022-11-27T00:03:45;6.90;99.90
19252;DHT22;9760;50.944;5.304;2022-11-27T00:06:13;6.90;99.90
19252;DHT22;9760;50.944;5.304;2022-11-27T00:08:40;6.80;99.90
19252;DHT22;9760;50.944;5.304;2022-11-27T00:11:20;6.80;99.90
19252;DHT22;9760;50.944;5.304;2022-11-27T00:13:47;6.80;99.90
19252;DHT22;9760;50.944;5.304;2022-11-27T00:16:14;6.80;99.90
19252;DHT22;9760;50.944;5.304;2022-11-27T00:18:40;6.80;99.90
19252;DHT22;9760;50.944;5.304;2022-11-27T00:21:13;6.90;99.90
19252;DHT22;9760;50.944;5.304;2022-11-27T00:23:41;6.80;99.90
19252;DHT22;9760;50.944;5.304;2022-11-27T00:26:07;6.80;99.90
19252;DHT22;9760;50.944;5.304;2022-11-27T00:28:33;6.70;99.90
19252;DHT22;9760;50.944;5.304;2022-11-27T00:31:00;6.70;99.90
19252;DHT22;9760;50.944;5.304;2022-11-27T00:33:27;6.70;99.90
19252;DHT22;9760;50.944;5.304;2022-11-27T00:35:52;6.70;99.90
19252;DHT22;9760;50.944;5.304;2022-11-27T00:38:18;6.70;99.90
19252;DHT22;9760;50.944;5.304;2022-11-27T00:40:45;6.70;99.90
19252;DHT22;9760;50.944;5.304;2022-11-27T00:43:11;6.70;99.90
19252;DHT22;9760;50.944;5.304;2022-11-27T00:45:37;6.60;99.90
19252;DHT22;9760;50.944;5.304;2022-11-27T00:48:03;6.60;99.90
19252;DHT22;9760;50.944;5.304;2022-11-27T00:50:29;6.60;99.90
19252;DHT22;9760;50.944;5.304;2022-11-27T00:52:59;6.60;99.90
19252;DHT22;9760;50.944;5.304;2022-11-27T00:55:25;6.60;99.90
19252;DHT22;9760;50.944;5.304;2022-11-27T00:57:51;6.60;99.90
19252;DHT22;9760;50.944;5.304;2022-11-27T01:00:17;6.60;99.90
19252;DHT22;9760;50.944;5.304;2022-11-27T01:02:42;6.60;99.90
19252;DHT22;9760;50.944;5.304;2022-11-27T01:05:08;6.60;99.90
19252;DHT22;9760;50.944;5.304;2022-11-27T01:07:34;6.50;99.90
19252;DHT22;9760;50.944;5.304;2022-11-27T01:09:59;6.50;99.90
19252;DHT22;9760;50.944;5.304;2022-11-27T01:12:25;6.50;99.90
19252;DHT22;9760;50.944;5.304;2022-11-27T01:14:51;6.50;99.90
19252;DHT22;9760;50.944;5.304;2022-11-27T01:17:16;6.50;99.90
19252;DHT22;9760;50.944;5.304;2022-11-27T01:19:42;6.50;99.90
19252;DHT22;9760;50.944;5.304;2022-11-27T01:22:07;6.60;99.90
19252;DHT22;9760;50.944;5.304;2022-11-27T01:24:33;6.70;99.90
19252;DHT22;9760;50.944;5.304;2022-11-27T01:26:58;6.70;99.90
19252;DHT22;9760;50.944;5.304;2022-11-27T01:29:24;6.80;99.90
19252;DHT22;9760;50.944;5.304;2022-11-27T01:31:50;6.80;99.90
19252;DHT22;9760;50.944;5.304;2022-11-27T01:34:16;6.80;99.90
19252;DHT22;9760;50.944;5.304;2022-11-27T01:36:43;6.80;99.90
19252;DHT22;9760;50.944;5.304;2022-11-27T01:39:16;6.90;99.90
19252;DHT22;9760;50.944;5.304;2022-11-27T01:41:43;6.90;99.90
19252;DHT22;9760;50.944;5.304;2022-11-27T01:46:54;6.90;99.90
19252;DHT22;9760;50.944;5.304;2022-11-27T01:52:17;6.90;99.90
19252;DHT22;9760;50.944;5.304;2022-11-27T01:54:53;6.90;99.90
19252;DHT22;9760;50.944;5.304;2022-11-27T01:57:42;7.00;99.90
19252;DHT22;9760;50.944;5.304;2022-11-27T02:00:12;6.90;99.90
19252;DHT22;9760;50.944;5.304;2022-11-27T02:02:39;6.90;99.90
19252;DHT22;9760;50.944;5.304;2022-11-27T02:05:05;7.00;99.90
19252;DHT22;9760;50.944;5.304;2022-11-27T02:07:31;7.00;99.90
19252;DHT22;9760;50.944;5.304;2022-11-27T02:09:56;7.00;99.90
19252;DHT22;9760;50.944;5.304;2022-11-27T02:12:34;7.00;99.90
19252;DHT22;9760;50.944;5.304;2022-11-27T02:15:20;7.00;99.90
19252;DHT22;9760;50.944;5.304;2022-11-27T02:20:37;6.90;99.90
19252;DHT22;9760;50.944;5.304;2022-11-27T02:26:16;7.00;99.90
19252;DHT22;9760;50.944;5.304;2022-11-27T02:37:04;7.00;99.90
19252;DHT22;9760;50.944;5.304;2022-11-27T02:39:40;7.00;99.90
19252;DHT22;9760;50.944;5.304;2022-11-27T02:42:16;7.00;99.90
19252;DHT22;9760;50.944;5.304;2022-11-27T02:44:48;7.00;99.90
19252;DHT22;9760;50.944;5.304;2022-11-27T02:47:15;7.00;99.90
19252;DHT22;9760;50.944;5.304;2022-11-27T02:49:42;7.00;99.90
19252;DHT22;9760;50.944;5.304;2022-11-27T02:52:11;7.00;99.90
19252;DHT22;9760;50.944;5.304;2022-11-27T02:54:38;7.10;99.90
19252;DHT22;9760;50.944;5.304;2022-11-27T02:57:05;7.10;99.90
19252;DHT22;9760;50.944;5.304;2022-11-27T02:59:33;7.10;99.90
19252;DHT22;9760;50.944;5.304;2022-11-27T03:02:05;7.20;99.90
19252;DHT22;9760;50.944;5.304;2022-11-27T03:04:40;7.10;99.90
19252;DHT22;9760;50.944;5.304;2022-11-27T03:07:15;7.10;99.90
19252;DHT22;9760;50.944;5.304;2022-11-27T03:09:45;7.20;99.90
19252;DHT22;9760;50.944;5.304;2022-11-27T03:12:13;7.20;99.90
19252;DHT22;9760;50.944;5.304;2022-11-27T03:14:40;7.20;99.90
19252;DHT22;9760;50.944;5.304;2022-11-27T03:20:09;7.20;99.90
19252;DHT22;9760;50.944;5.304;2022-11-27T03:22:36;7.20;99.90
19252;DHT22;9760;50.944;5.304;2022-11-27T03:25:02;7.30;99.90
19252;DHT22;9760;50.944;5.304;2022-11-27T03:27:34;7.30;99.90
19252;DHT22;9760;50.944;5.304;2022-11-27T03:30:07;7.30;99.90
19252;DHT22;9760;50.944;5.304;2022-11-27T03:32:33;7.30;99.90
19252;DHT22;9760;50.944;5.304;2022-11-27T03:34:59;7.30;99.90
19252;DHT22;9760;50.944;5.304;2022-11-27T03:37:26;7.30;99.90
19252;DHT22;9760;50.944;5.304;2022-11-27T03:39:52;7.30;99.90
19252;DHT22;9760;50.944;5.304;2022-11-27T03:42:30;7.30;99.90
19252;DHT22;9760;50.944;5.304;2022-11-27T03:45:21;7.30;99.90
19252;DHT22;9760;50.944;5.304;2022-11-27T03:48:22;7.30;99.90
19252;DHT22;9760;50.944;5.304;2022-11-27T03:51:12;7.30;99.90
19252;DHT22;9760;50.944;5.304;2022-11-27T03:54:02;7.30;99.90
19252;DHT22;9760;50.944;5.304;2022-11-27T03:56:40;7.40;99.90
19252;DHT22;9760;50.944;5.304;2022-11-27T03:59:26;7.40;99.90
19252;DHT22;9760;50.944;5.304;2022-11-27T04:01:52;7.40;99.90
19252;DHT22;9760;50.944;5.304;2022-11-27T04:04:18;7.50;99.90
19252;DHT22;9760;50.944;5.304;2022-11-27T04:06:44;7.50;99.90
19252;DHT22;9760;50.944;5.304;2022-11-27T04:09:10;7.50;99.90
19252;DHT22;9760;50.944;5.304;2022-11-27T04:11:36;7.50;99.90
19252;DHT22;9760;50.944;5.304;2022-11-27T04:14:01;7.60;99.90
19252;DHT22;9760;50.944;5.304;2022-11-27T04:16:27;7.60;99.90
19252;DHT22;9760;50.944;5.304;2022-11-27T04:18:52;7.50;99.90
19252;DHT22;9760;50.944;5.304;2022-11-27T04:21:18;7.50;99.90
19252;DHT22;9760;50.944;5.304;2022-11-27T04:23:44;7.50;99.90
19252;DHT22;9760;50.944;5.304;2022-11-27T04:26:10;7.60;99.90
19252;DHT22;9760;50.944;5.304;2022-11-27T04:28:35;7.50;99.90
19252;DHT22;9760;50.944;5.304;2022-11-27T04:31:01;7.50;99.90
19252;DHT22;9760;50.944;5.304;2022-11-27T04:33:26;7.50;99.90
19252;DHT22;9760;50.944;5.304;2022-11-27T04:35:52;7.50;99.90
19252;DHT22;9760;50.944;5.304;2022-11-27T04:38:19;7.60;99.90
19252;DHT22;9760;50.944;5.304;2022-11-27T04:40:45;7.60;99.90
19252;DHT22;9760;50.944;5.304;2022-11-27T04:43:10;7.60;99.90
19252;DHT22;9760;50.944;5.304;2022-11-27T04:45:36;7.50;99.90
19252;DHT22;9760;50.944;5.304;2022-11-27T04:48:02;7.50;99.90
19252;DHT22;9760;50.944;5.304;2022-11-27T04:50:28;7.50;99.90
19252;DHT22;9760;50.944;5.304;2022-11-27T04:52:54;7.50;99.90
19252;DHT22;9760;50.944;5.304;2022-11-27T04:55:19;7.50;99.90
19252;DHT22;9760;50.944;5.304;2022-11-27T04:57:45;7.50;99.90
19252;DHT22;9760;50.944;5.304;2022-11-27T05:00:11;7.50;99.90
19252;DHT22;9760;50.944;5.304;2022-11-27T05:02:36;7.50;99.90
19252;DHT22;9760;50.944;5.304;2022-11-27T05:05:02;7.60;99.90
19252;DHT22;9760;50.944;5.304;2022-11-27T05:07:28;7.60;99.90
19252;DHT22;9760;50.944;5.304;2022-11-27T05:09:54;7.50;99.90
19252;DHT22;9760;50.944;5.304;2022-11-27T05:12:19;7.60;99.90
19252;DHT22;9760;50.944;5.304;2022-11-27T05:14:45;7.60;99.90
19252;DHT22;9760;50.944;5.304;2022-11-27T05:17:11;7.70;99.90
19252;DHT22;9760;50.944;5.304;2022-11-27T05:19:36;7.70;99.90
19252;DHT22;9760;50.944;5.304;2022-11-27T05:22:02;7.60;99.90
19252;DHT22;9760;50.944;5.304;2022-11-27T05:24:28;7.60;99.90
19252;DHT22;9760;50.944;5.304;2022-11-27T05:26:54;7.60;99.90
19252;DHT22;9760;50.944;5.304;2022-11-27T05:29:20;7.60;99.90
19252;DHT22;9760;50.944;5.304;2022-11-27T05:31:46;7.60;99.90
19252;DHT22;9760;50.944;5.304;2022-11-27T05:34:12;7.60;99.90
19252;DHT22;9760;50.944;5.304;2022-11-27T05:36:38;7.70;99.90
19252;DHT22;9760;50.944;5.304;2022-11-27T05:39:05;7.60;99.90
19252;DHT22;9760;50.944;5.304;2022-11-27T05:41:32;7.60;99.90
19252;DHT22;9760;50.944;5.304;2022-11-27T05:43:57;7.60;99.90
19252;DHT22;9760;50.944;5.304;2022-11-27T05:46:23;7.70;99.90
19252;DHT22;9760;50.944;5.304;2022-11-27T05:48:49;7.70;99.90
19252;DHT22;9760;50.944;5.304;2022-11-27T05:51:16;7.70;99.90
19252;DHT22;9760;50.944;5.304;2022-11-27T05:53:42;7.70;99.90
19252;DHT22;9760;50.944;5.304;2022-11-27T05:56:13;7.70;99.90
19252;DHT22;9760;50.944;5.304;2022-11-27T05:58:40;7.70;99.90
19252;DHT22;9760;50.944;5.304;2022-11-27T06:01:07;7.70;99.90
19252;DHT22;9760;50.944;5.304;2022-11-27T06:03:33;7.70;99.90
19252;DHT22;9760;50.944;5.304;2022-11-27T06:06:05;7.70;99.90
19252;DHT22;9760;50.944;5.304;2022-11-27T06:08:31;7.70;99.90
19252;DHT22;9760;50.944;5.304;2022-11-27T06:10:57;7.80;99.90
19252;DHT22;9760;50.944;5.304;2022-11-27T06:13:22;7.80;99.90
19252;DHT22;9760;50.944;5.304;2022-11-27T06:15:48;7.80;99.90
19252;DHT22;9760;50.944;5.304;2022-11-27T06:18:13;7.80;99.90
19252;DHT22;9760;50.944;5.304;2022-11-27T06:20:39;7.80;99.90
19252;DHT22;9760;50.944;5.304;2022-11-27T06:23:05;7.80;99.90
19252;DHT22;9760;50.944;5.304;2022-11-27T06:25:30;7.70;99.90
19252;DHT22;9760;50.944;5.304;2022-11-27T06:27:56;7.70;99.90
19252;DHT22;9760;50.944;5.304;2022-11-27T06:30:21;7.70;99.90
19252;DHT22;9760;50.944;5.304;2022-11-27T06:32:47;7.70;99.90
19252;DHT22;9760;50.944;5.304;2022-11-27T06:35:13;7.70;99.90
19252;DHT22;9760;50.944;5.304;2022-11-27T06:37:38;7.70;99.90
19252;DHT22;9760;50.944;5.304;2022-11-27T06:40:04;7.70;99.90
19252;DHT22;9760;50.944;5.304;2022-11-27T06:42:31;7.70;99.90
19252;DHT22;9760;50.944;5.304;2022-11-27T06:44:56;7.60;99.90
19252;DHT22;9760;50.944;5.304;2022-11-27T06:47:22;7.60;99.90
19252;DHT22;9760;50.944;5.304;2022-11-27T06:49:48;7.60;99.90
19252;DHT22;9760;50.944;5.304;2022-11-27T06:52:14;7.60;99.90
19252;DHT22;9760;50.944;5.304;2022-11-27T06:54:39;7.60;99.90
19252;DHT22;9760;50.944;5.304;2022-11-27T06:57:05;7.60;99.90
19252;DHT22;9760;50.944;5.304;2022-11-27T06:59:30;7.60;99.90
19252;DHT22;9760;50.944;5.304;2022-11-27T07:01:56;7.60;99.90
19252;DHT22;9760;50.944;5.304;2022-11-27T07:04:22;7.60;99.90
19252;DHT22;9760;50.944;5.304;2022-11-27T07:06:47;7.60;99.90
19252;DHT22;9760;50.944;5.304;2022-11-27T07:09:14;7.60;99.90
19252;DHT22;9760;50.944;5.304;2022-11-27T07:11:40;7.60;99.90
19252;DHT22;9760;50.944;5.304;2022-11-27T07:14:06;7.60;99.90
19252;DHT22;9760;50.944;5.304;2022-11-27T07:16:33;7.60;99.90
19252;DHT22;9760;50.944;5.304;2022-11-27T07:19:03;7.60;99.90
19252;DHT22;9760;50.944;5.304;2022-11-27T07:21:29;7.60;99.90
19252;DHT22;9760;50.944;5.304;2022-11-27T07:23:55;7.60;99.90
19252;DHT22;9760;50.944;5.304;2022-11-27T07:26:24;7.60;99.90
19252;DHT22;9760;50.944;5.304;2022-11-27T07:28:52;7.60;99.90
19252;DHT22;9760;50.944;5.304;2022-11-27T07:31:20;7.60;99.90
19252;DHT22;9760;50.944;5.304;2022-11-27T07:33:46;7.50;99.90
19252;DHT22;9760;50.944;5.304;2022-11-27T07:36:19;7.50;99.90
19252;DHT22;9760;50.944;5.304;2022-11-27T07:38:46;7.50;99.90
19252;DHT22;9760;50.944;5.304;2022-11-27T07:41:12;7.50;99.90
19252;DHT22;9760;50.944;5.304;2022-11-27T07:43:39;7.50;99.90
19252;DHT22;9760;50.944;5.304;2022-11-27T07:46:25;7.50;99.90
19252;DHT22;9760;50.944;5.304;2022-11-27T07:48:51;7.40;99.90
19252;DHT22;9760;50.944;5.304;2022-11-27T07:51:19;7.40;99.90
19252;DHT22;9760;50.944;5.304;2022-11-27T07:53:45;7.40;99.90
19252;DHT22;9760;50.944;5.304;2022-11-27T07:56:12;7.50;99.90
19252;DHT22;9760;50.944;5.304;2022-11-27T07:58:38;7.50;99.90
19252;DHT22;9760;50.944;5.304;2022-11-27T08:01:08;7.50;99.90
19252;DHT22;9760;50.944;5.304;2022-11-27T08:03:35;7.50;99.90
19252;DHT22;9760;50.944;5.304;2022-11-27T08:06:00;7.50;99.90
19252;DHT22;9760;50.944;5.304;2022-11-27T08:08:26;7.50;99.90
19252;DHT22;9760;50.944;5.304;2022-11-27T08:10:52;7.50;99.90
19252;DHT22;9760;50.944;5.304;2022-11-27T08:13:17;7.50;99.90
19252;DHT22;9760;50.944;5.304;2022-11-27T08:15:43;7.50;99.90
19252;DHT22;9760;50.944;5.304;2022-11-27T08:18:10;7.60;99.90
19252;DHT22;9760;50.944;5.304;2022-11-27T08:20:36;7.60;99.90
19252;DHT22;9760;50.944;5.304;2022-11-27T08:23:01;7.60;99.90
19252;DHT22;9760;50.944;5.304;2022-11-27T08:25:27;7.60;99.90
19252;DHT22;9760;50.944;5.304;2022-11-27T08:27:53;7.60;99.90
19252;DHT22;9760;50.944;5.304;2022-11-27T08:30:19;7.70;99.90
19252;DHT22;9760;50.944;5.304;2022-11-27T08:32:48;7.70;99.90
19252;DHT22;9760;50.944;5.304;2022-11-27T08:35:13;7.70;99.90
19252;DHT22;9760;50.944;5.304;2022-11-27T08:37:39;7.70;99.90
19252;DHT22;9760;50.944;5.304;2022-11-27T08:40:05;7.70;99.90
19252;DHT22;9760;50.944;5.304;2022-11-27T08:42:31;7.70;99.90
19252;DHT22;9760;50.944;5.304;2022-11-27T08:44:57;7.70;99.90
19252;DHT22;9760;50.944;5.304;2022-11-27T08:47:22;7.70;99.90
19252;DHT22;9760;50.944;5.304;2022-11-27T08:49:48;7.70;99.90
19252;DHT22;9760;50.944;5.304;2022-11-27T08:52:13;7.70;99.90
19252;DHT22;9760;50.944;5.304;2022-11-27T08:54:39;7.70;99.90
19252;DHT22;9760;50.944;5.304;2022-11-27T08:57:04;7.80;99.90
19252;DHT22;9760;50.944;5.304;2022-11-27T08:59:30;7.80;99.90
19252;DHT22;9760;50.944;5.304;2022-11-27T09:01:56;7.80;99.90
19252;DHT22;9760;50.944;5.304;2022-11-27T09:04:21;7.90;99.90
19252;DHT22;9760;50.944;5.304;2022-11-27T09:06:47;7.90;99.90
19252;DHT22;9760;50.944;5.304;2022-11-27T09:09:15;7.90;99.90
19252;DHT22;9760;50.944;5.304;2022-11-27T09:11:41;7.90;99.90
19252;DHT22;9760;50.944;5.304;2022-11-27T09:14:07;8.00;99.90
19252;DHT22;9760;50.944;5.304;2022-11-27T09:16:34;8.00;99.90
19252;DHT22;9760;50.944;5.304;2022-11-27T09:19:00;8.00;99.90
19252;DHT22;9760;50.944;5.304;2022-11-27T09:21:27;8.10;99.90
19252;DHT22;9760;50.944;5.304;2022-11-27T09:23:58;8.10;99.90
19252;DHT22;9760;50.944;5.304;2022-11-27T09:26:25;8.10;99.90
19252;DHT22;9760;50.944;5.304;2022-11-27T09:28:52;8.10;99.90
19252;DHT22;9760;50.944;5.304;2022-11-27T09:31:19;8.10;99.90
19252;DHT22;9760;50.944;5.304;2022-11-27T09:33:45;8.20;99.90
19252;DHT22;9760;50.944;5.304;2022-11-27T09:36:19;8.20;99.90
19252;DHT22;9760;50.944;5.304;2022-11-27T09:38:45;8.20;99.90
19252;DHT22;9760;50.944;5.304;2022-11-27T09:46:43;8.10;99.90
19252;DHT22;9760;50.944;5.304;2022-11-27T09:49:13;8.10;99.90
19252;DHT22;9760;50.944;5.304;2022-11-27T09:54:35;8.20;99.90
19252;DHT22;9760;50.944;5.304;2022-11-27T09:57:01;8.20;99.90
19252;DHT22;9760;50.944;5.304;2022-11-27T09:59:49;8.20;99.90
19252;DHT22;9760;50.944;5.304;2022-11-27T10:02:17;8.20;99.90
19252;DHT22;9760;50.944;5.304;2022-11-27T10:04:44;8.20;99.90
19252;DHT22;9760;50.944;5.304;2022-11-27T10:07:31;8.30;99.90
19252;DHT22;9760;50.944;5.304;2022-11-27T10:18:31;8.10;99.90
19252;DHT22;9760;50.944;5.304;2022-11-27T10:24:32;8.10;99.90
19252;DHT22;9760;50.944;5.304;2022-11-27T10:27:11;8.10;99.90
19252;DHT22;9760;50.944;5.304;2022-11-27T10:29:53;8.10;99.90
19252;DHT22;9760;50.944;5.304;2022-11-27T10:32:23;8.20;99.90
19252;DHT22;9760;50.944;5.304;2022-11-27T10:35:16;8.10;99.90
19252;DHT22;9760;50.944;5.304;2022-11-27T10:37:52;8.30;99.90
19252;DHT22;9760;50.944;5.304;2022-11-27T10:40:48;8.30;99.90
19252;DHT22;9760;50.944;5.304;2022-11-27T10:43:23;8.20;99.90
19252;DHT22;9760;50.944;5.304;2022-11-27T10:48:33;8.20;99.90
19252;DHT22;9760;50.944;5.304;2022-11-27T10:50:59;8.20;99.90
19252;DHT22;9760;50.944;5.304;2022-11-27T10:56:15;8.30;99.90
19252;DHT22;9760;50.944;5.304;2022-11-27T10:58:59;8.40;99.90
19252;DHT22;9760;50.944;5.304;2022-11-27T11:01:28;8.40;99.90
19252;DHT22;9760;50.944;5.304;2022-11-27T11:04:05;8.50;99.90
19252;DHT22;9760;50.944;5.304;2022-11-27T11:06:37;8.60;99.90
19252;DHT22;9760;50.944;5.304;2022-11-27T11:09:11;8.50;99.90
19252;DHT22;9760;50.944;5.304;2022-11-27T11:11:37;8.50;99.90
19252;DHT22;9760;50.944;5.304;2022-11-27T11:14:03;8.50;99.90
19252;DHT22;9760;50.944;5.304;2022-11-27T11:16:42;8.50;99.90
19252;DHT22;9760;50.944;5.304;2022-11-27T11:19:38;8.60;99.90
19252;DHT22;9760;50.944;5.304;2022-11-27T11:22:19;8.50;99.90
19252;DHT22;9760;50.944;5.304;2022-11-27T11:24:48;8.60;99.90
19252;DHT22;9760;50.944;5.304;2022-11-27T11:27:26;8.60;99.90
19252;DHT22;9760;50.944;5.304;2022-11-27T11:29:59;8.60;99.90
19252;DHT22;9760;50.944;5.304;2022-11-27T11:32:32;8.60;99.90
19252;DHT22;9760;50.944;5.304;2022-11-27T11:35:03;8.60;99.90
19252;DHT22;9760;50.944;5.304;2022-11-27T11:37:34;8.50;99.90
19252;DHT22;9760;50.944;5.304;2022-11-27T11:40:07;8.50;99.90
19252;DHT22;9760;50.944;5.304;2022-11-27T11:42:35;8.50;99.90
19252;DHT22;9760;50.944;5.304;2022-11-27T11:48:19;8.40;99.90
19252;DHT22;9760;50.944;5.304;2022-11-27T11:55:49;8.50;99.90
19252;DHT22;9760;50.944;5.304;2022-11-27T12:14:46;8.70;99.90
19252;DHT22;9760;50.944;5.304;2022-11-27T12:17:27;8.70;99.90
19252;DHT22;9760;50.944;5.304;2022-11-27T12:33:46;8.70;99.90
19252;DHT22;9760;50.944;5.304;2022-11-27T12:36:53;8.70;99.90
19252;DHT22;9760;50.944;5.304;2022-11-27T12:47:41;8.70;99.90
19252;DHT22;9760;50.944;5.304;2022-11-27T12:50:20;8.70;99.90
19252;DHT22;9760;50.944;5.304;2022-11-27T12:53:02;8.60;99.90
19252;DHT22;9760;50.944;5.304;2022-11-27T12:55:32;8.60;99.90
19252;DHT22;9760;50.944;5.304;2022-11-27T12:58:05;8.60;99.90
19252;DHT22;9760;50.944;5.304;2022-11-27T13:00:36;8.60;99.90
19252;DHT22;9760;50.944;5.304;2022-11-27T13:06:13;8.70;99.90
19252;DHT22;9760;50.944;5.304;2022-11-27T13:09:06;8.70;99.90
19252;DHT22;9760;50.944;5.304;2022-11-27T13:11:36;8.70;99.90
19252;DHT22;9760;50.944;5.304;2022-11-27T13:16:36;8.70;99.90
19252;DHT22;9760;50.944;5.304;2022-11-27T13:22:12;8.70;99.90
19252;DHT22;9760;50.944;5.304;2022-11-27T13:24:38;8.70;99.90
19252;DHT22;9760;50.944;5.304;2022-11-27T13:27:21;8.70;99.90
19252;DHT22;9760;50.944;5.304;2022-11-27T13:29:53;8.70;99.90
19252;DHT22;9760;50.944;5.304;2022-11-27T13:32:24;8.70;99.90
19252;DHT22;9760;50.944;5.304;2022-11-27T13:34:52;8.70;99.90
19252;DHT22;9760;50.944;5.304;2022-11-27T13:37:24;8.70;99.90
19252;DHT22;9760;50.944;5.304;2022-11-27T13:42:26;8.70;99.90
19252;DHT22;9760;50.944;5.304;2022-11-27T13:45:05;8.70;99.90
19252;DHT22;9760;50.944;5.304;2022-11-27T13:47:41;8.70;99.90
19252;DHT22;9760;50.944;5.304;2022-11-27T13:50:12;8.70;99.90
19252;DHT22;9760;50.944;5.304;2022-11-27T13:53:00;8.60;99.90
19252;DHT22;9760;50.944;5.304;2022-11-27T13:55:38;8.60;99.90
19252;DHT22;9760;50.944;5.304;2022-11-27T13:58:05;8.40;99.90
19252;DHT22;9760;50.944;5.304;2022-11-27T14:03:00;8.60;99.90
19252;DHT22;9760;50.944;5.304;2022-11-27T14:05:41;8.60;99.90
19252;DHT22;9760;50.944;5.304;2022-11-27T14:08:32;8.50;99.90
19252;DHT22;9760;50.944;5.304;2022-11-27T14:11:03;8.50;99.90
19252;DHT22;9760;50.944;5.304;2022-11-27T14:13:50;8.50;99.90
19252;DHT22;9760;50.944;5.304;2022-11-27T14:16:31;8.50;99.90
19252;DHT22;9760;50.944;5.304;2022-11-27T14:19:00;8.50;99.90
19252;DHT22;9760;50.944;5.304;2022-11-27T14:21:37;8.50;99.90
19252;DHT22;9760;50.944;5.304;2022-11-27T14:26:46;8.50;99.90
19252;DHT22;9760;50.944;5.304;2022-11-27T14:29:12;8.50;99.90
19252;DHT22;9760;50.944;5.304;2022-11-27T14:31:38;8.50;99.90
19252;DHT22;9760;50.944;5.304;2022-11-27T14:34:04;8.50;99.90
19252;DHT22;9760;50.944;5.304;2022-11-27T14:36:33;8.50;99.90
19252;DHT22;9760;50.944;5.304;2022-11-27T14:39:00;8.50;99.90
19252;DHT22;9760;50.944;5.304;2022-11-27T14:41:27;8.50;99.90
19252;DHT22;9760;50.944;5.304;2022-11-27T14:46:26;8.50;99.90
19252;DHT22;9760;50.944;5.304;2022-11-27T14:48:54;8.50;99.90
19252;DHT22;9760;50.944;5.304;2022-11-27T14:51:25;8.50;99.90
19252;DHT22;9760;50.944;5.304;2022-11-27T14:54:02;8.50;99.90
19252;DHT22;9760;50.944;5.304;2022-11-27T14:56:38;8.50;99.90
19252;DHT22;9760;50.944;5.304;2022-11-27T14:59:04;8.50;99.90
19252;DHT22;9760;50.944;5.304;2022-11-27T15:01:35;8.40;99.90
19252;DHT22;9760;50.944;5.304;2022-11-27T15:04:02;8.50;99.90
19252;DHT22;9760;50.944;5.304;2022-11-27T15:06:42;8.40;99.90
19252;DHT22;9760;50.944;5.304;2022-11-27T15:09:24;8.40;99.90
19252;DHT22;9760;50.944;5.304;2022-11-27T15:11:55;8.40;99.90
19252;DHT22;9760;50.944;5.304;2022-11-27T15:14:24;8.40;99.90
19252;DHT22;9760;50.944;5.304;2022-11-27T15:16:51;8.40;99.90
19252;DHT22;9760;50.944;5.304;2022-11-27T15:19:29;8.30;99.90
19252;DHT22;9760;50.944;5.304;2022-11-27T15:21:55;8.20;99.90
19252;DHT22;9760;50.944;5.304;2022-11-27T15:24:36;8.20;99.90
19252;DHT22;9760;50.944;5.304;2022-11-27T15:29:39;8.20;99.90
19252;DHT22;9760;50.944;5.304;2022-11-27T15:32:22;8.20;99.90
19252;DHT22;9760;50.944;5.304;2022-11-27T15:34:51;8.20;99.90
19252;DHT22;9760;50.944;5.304;2022-11-27T15:39:49;8.20;99.90
19252;DHT22;9760;50.944;5.304;2022-11-27T15:42:16;8.20;99.90
19252;DHT22;9760;50.944;5.304;2022-11-27T15:44:43;8.20;99.90
19252;DHT22;9760;50.944;5.304;2022-11-27T15:47:25;8.20;99.90
19252;DHT22;9760;50.944;5.304;2022-11-27T15:49:51;8.20;99.90
19252;DHT22;9760;50.944;5.304;2022-11-27T15:52:17;8.20;99.90
19252;DHT22;9760;50.944;5.304;2022-11-27T15:54:43;8.20;99.90
19252;DHT22;9760;50.944;5.304;2022-11-27T15:57:09;8.20;99.90
19252;DHT22;9760;50.944;5.304;2022-11-27T15:59:34;8.20;99.90
19252;DHT22;9760;50.944;5.304;2022-11-27T16:02:00;8.10;99.90
19252;DHT22;9760;50.944;5.304;2022-11-27T16:04:26;8.20;99.90
19252;DHT22;9760;50.944;5.304;2022-11-27T16:06:51;8.20;99.90
19252;DHT22;9760;50.944;5.304;2022-11-27T16:09:17;8.10;99.90
19252;DHT22;9760;50.944;5.304;2022-11-27T16:11:43;8.10;99.90
19252;DHT22;9760;50.944;5.304;2022-11-27T16:14:08;8.10;99.90
19252;DHT22;9760;50.944;5.304;2022-11-27T16:16:35;8.10;99.90
19252;DHT22;9760;50.944;5.304;2022-11-27T16:19:02;8.10;99.90
19252;DHT22;9760;50.944;5.304;2022-11-27T16:21:29;8.10;99.90
19252;DHT22;9760;50.944;5.304;2022-11-27T16:24:00;8.10;99.90
19252;DHT22;9760;50.944;5.304;2022-11-27T16:26:27;8.10;99.90
19252;DHT22;9760;50.944;5.304;2022-11-27T16:28:53;8.10;99.90
19252;DHT22;9760;50.944;5.304;2022-11-27T16:31:20;8.10;99.90
19252;DHT22;9760;50.944;5.304;2022-11-27T16:33:46;8.10;99.90
19252;DHT22;9760;50.944;5.304;2022-11-27T16:36:14;8.10;99.90
19252;DHT22;9760;50.944;5.304;2022-11-27T16:38:41;8.10;99.90
19252;DHT22;9760;50.944;5.304;2022-11-27T16:41:09;8.10;99.90
19252;DHT22;9760;50.944;5.304;2022-11-27T16:43:38;8.10;99.90
19252;DHT22;9760;50.944;5.304;2022-11-27T16:46:32;8.00;99.90
19252;DHT22;9760;50.944;5.304;2022-11-27T16:48:58;8.10;99.90
19252;DHT22;9760;50.944;5.304;2022-11-27T16:51:26;8.00;99.90
19252;DHT22;9760;50.944;5.304;2022-11-27T16:54:03;8.00;99.90
19252;DHT22;9760;50.944;5.304;2022-11-27T16:56:30;8.00;99.90
19252;DHT22;9760;50.944;5.304;2022-11-27T16:58:57;8.00;99.90
19252;DHT22;9760;50.944;5.304;2022-11-27T17:01:25;8.00;99.90
19252;DHT22;9760;50.944;5.304;2022-11-27T17:03:52;7.90;99.90
19252;DHT22;9760;50.944;5.304;2022-11-27T17:06:20;7.90;99.90
19252;DHT22;9760;50.944;5.304;2022-11-27T17:08:47;7.80;99.90
19252;DHT22;9760;50.944;5.304;2022-11-27T17:11:22;7.80;99.90
19252;DHT22;9760;50.944;5.304;2022-11-27T17:13:49;7.80;99.90
19252;DHT22;9760;50.944;5.304;2022-11-27T17:16:15;7.80;99.90
19252;DHT22;9760;50.944;5.304;2022-11-27T17:18:41;7.80;99.90
19252;DHT22;9760;50.944;5.304;2022-11-27T17:21:19;7.80;99.90
19252;DHT22;9760;50.944;5.304;2022-11-27T17:23:54;7.80;99.90
19252;DHT22;9760;50.944;5.304;2022-11-27T17:26:23;7.70;99.90
19252;DHT22;9760;50.944;5.304;2022-11-27T17:28:49;7.80;99.90
19252;DHT22;9760;50.944;5.304;2022-11-27T17:31:19;7.80;99.90
19252;DHT22;9760;50.944;5.304;2022-11-27T17:33:45;7.70;99.90
19252;DHT22;9760;50.944;5.304;2022-11-27T17:36:11;7.70;99.90
19252;DHT22;9760;50.944;5.304;2022-11-27T17:38:37;7.70;99.90
19252;DHT22;9760;50.944;5.304;2022-11-27T17:41:09;7.70;99.90
19252;DHT22;9760;50.944;5.304;2022-11-27T17:43:35;7.70;99.90
19252;DHT22;9760;50.944;5.304;2022-11-27T17:46:09;7.70;99.90
19252;DHT22;9760;50.944;5.304;2022-11-27T17:48:35;7.70;99.90
19252;DHT22;9760;50.944;5.304;2022-11-27T17:51:01;7.70;99.90
19252;DHT22;9760;50.944;5.304;2022-11-27T17:53:27;7.70;99.90
19252;DHT22;9760;50.944;5.304;2022-11-27T17:55:53;7.70;99.90
19252;DHT22;9760;50.944;5.304;2022-11-27T17:58:19;7.70;99.90
19252;DHT22;9760;50.944;5.304;2022-11-27T18:00:45;7.70;99.90
19252;DHT22;9760;50.944;5.304;2022-11-27T18:03:11;7.80;99.90
19252;DHT22;9760;50.944;5.304;2022-11-27T18:05:37;7.70;99.90
19252;DHT22;9760;50.944;5.304;2022-11-27T18:08:04;7.80;99.90
19252;DHT22;9760;50.944;5.304;2022-11-27T18:10:32;7.80;99.90
19252;DHT22;9760;50.944;5.304;2022-11-27T18:12:58;7.80;99.90
19252;DHT22;9760;50.944;5.304;2022-11-27T18:15:23;7.80;99.90